sensor_id;sensor_type;location;lat;lon;timestamp;P1;durP1;ratioP1;P2;durP2;ratioP2
72791;SDS011;60907;53.268;8.764;2023-03-02T00:00:25;31.67;;;12.50;;
72791;SDS011;60907;53.268;8.764;2023-03-02T00:02:51;28.15;;;11.07;;
72791;SDS011;60907;53.268;8.764;2023-03-02T00:05:16;38.13;;;12.27;;
72791;SDS011;60907;53.268;8.764;2023-03-02T00:07:42;29.65;;;12.25;;
72791;SDS011;60907;53.268;8.764;2023-03-02T00:10:07;27.38;;;12.27;;
72791;SDS011;60907;53.268;8.764;2023-03-02T00:12:34;29.17;;;12.48;;
72791;SDS011;60907;53.268;8.764;2023-03-02T00:15:00;30.45;;;11.52;;
72791;SDS011;60907;53.268;8.764;2023-03-02T00:17:25;27.20;;;11.95;;
72791;SDS011;60907;53.268;8.764;2023-03-02T00:19:54;29.42;;;11.55;;
72791;SDS011;60907;53.268;8.764;2023-03-02T00:22:33;30.23;;;11.60;;
72791;SDS011;60907;53.268;8.764;2023-03-02T00:24:59;31.67;;;11.77;;
72791;SDS011;60907;53.268;8.764;2023-03-02T00:27:24;34.47;;;11.15;;
72791;SDS011;60907;53.268;8.764;2023-03-02T00:29:53;24.05;;;10.27;;
72791;SDS011;60907;53.268;8.764;2023-03-02T00:32:22;35.30;;;11.38;;
72791;SDS011;60907;53.268;8.764;2023-03-02T00:34:48;40.83;;;10.90;;
72791;SDS011;60907;53.268;8.764;2023-03-02T00:37:13;36.35;;;11.52;;
72791;SDS011;60907;53.268;8.764;2023-03-02T00:39:39;27.73;;;11.32;;
72791;SDS011;60907;53.268;8.764;2023-03-02T00:42:05;33.42;;;11.88;;
72791;SDS011;60907;53.268;8.764;2023-03-02T00:44:30;32.50;;;10.85;;
72791;SDS011;60907;53.268;8.764;2023-03-02T00:46:56;32.28;;;11.23;;
72791;SDS011;60907;53.268;8.764;2023-03-02T00:49:21;33.03;;;11.35;;
72791;SDS011;60907;53.268;8.764;2023-03-02T00:51:47;30.25;;;11.63;;
72791;SDS011;60907;53.268;8.764;2023-03-02T00:54:12;42.78;;;11.70;;
72791;SDS011;60907;53.268;8.764;2023-03-02T00:56:38;36.97;;;11.80;;
72791;SDS011;60907;53.268;8.764;2023-03-02T00:59:07;33.67;;;12.02;;
72791;SDS011;60907;53.268;8.764;2023-03-02T01:01:50;43.10;;;12.50;;
72791;SDS011;60907;53.268;8.764;2023-03-02T01:04:31;30.65;;;11.35;;
72791;SDS011;60907;53.268;8.764;2023-03-02T01:06:59;32.53;;;12.23;;
72791;SDS011;60907;53.268;8.764;2023-03-02T01:09:27;42.33;;;11.43;;
72791;SDS011;60907;53.268;8.764;2023-03-02T01:11:53;33.13;;;11.88;;
72791;SDS011;60907;53.268;8.764;2023-03-02T01:14:19;38.15;;;10.27;;
72791;SDS011;60907;53.268;8.764;2023-03-02T01:16:44;29.90;;;11.70;;
72791;SDS011;60907;53.268;8.764;2023-03-02T01:19:11;32.00;;;11.48;;
72791;SDS011;60907;53.268;8.764;2023-03-02T01:21:38;41.78;;;10.63;;
72791;SDS011;60907;53.268;8.764;2023-03-02T01:24:03;44.55;;;11.57;;
72791;SDS011;60907;53.268;8.764;2023-03-02T01:26:29;33.72;;;10.30;;
72791;SDS011;60907;53.268;8.764;2023-03-02T01:28:55;32.58;;;11.32;;
72791;SDS011;60907;53.268;8.764;2023-03-02T01:31:21;25.45;;;10.77;;
72791;SDS011;60907;53.268;8.764;2023-03-02T01:33:47;38.90;;;10.45;;
72791;SDS011;60907;53.268;8.764;2023-03-02T01:36:12;40.20;;;10.68;;
72791;SDS011;60907;53.268;8.764;2023-03-02T01:38:38;35.92;;;11.00;;
72791;SDS011;60907;53.268;8.764;2023-03-02T01:41:04;32.45;;;10.68;;
72791;SDS011;60907;53.268;8.764;2023-03-02T01:43:29;30.90;;;9.30;;
72791;SDS011;60907;53.268;8.764;2023-03-02T01:45:56;31.77;;;12.00;;
72791;SDS011;60907;53.268;8.764;2023-03-02T01:48:27;46.17;;;10.63;;
72791;SDS011;60907;53.268;8.764;2023-03-02T01:50:54;33.38;;;10.52;;
72791;SDS011;60907;53.268;8.764;2023-03-02T01:53:20;42.03;;;10.13;;
72791;SDS011;60907;53.268;8.764;2023-03-02T01:55:47;34.08;;;10.77;;
72791;SDS011;60907;53.268;8.764;2023-03-02T01:58:13;41.25;;;10.60;;
72791;SDS011;60907;53.268;8.764;2023-03-02T02:00:39;38.95;;;9.70;;
72791;SDS011;60907;53.268;8.764;2023-03-02T02:03:15;36.33;;;11.63;;
72791;SDS011;60907;53.268;8.764;2023-03-02T02:05:45;32.20;;;10.75;;
72791;SDS011;60907;53.268;8.764;2023-03-02T02:08:14;34.13;;;11.35;;
72791;SDS011;60907;53.268;8.764;2023-03-02T02:10:40;31.20;;;10.73;;
72791;SDS011;60907;53.268;8.764;2023-03-02T02:13:09;28.02;;;10.13;;
72791;SDS011;60907;53.268;8.764;2023-03-02T02:15:35;31.95;;;10.50;;
72791;SDS011;60907;53.268;8.764;2023-03-02T02:18:02;30.73;;;10.10;;
72791;SDS011;60907;53.268;8.764;2023-03-02T02:20:42;28.30;;;11.18;;
72791;SDS011;60907;53.268;8.764;2023-03-02T02:28:34;31.83;;;9.90;;
72791;SDS011;60907;53.268;8.764;2023-03-02T02:31:20;34.78;;;10.13;;
72791;SDS011;60907;53.268;8.764;2023-03-02T02:33:51;38.85;;;9.27;;
72791;SDS011;60907;53.268;8.764;2023-03-02T02:36:28;32.28;;;10.88;;
72791;SDS011;60907;53.268;8.764;2023-03-02T02:38:57;25.95;;;9.95;;
72791;SDS011;60907;53.268;8.764;2023-03-02T02:43:51;26.60;;;9.60;;
72791;SDS011;60907;53.268;8.764;2023-03-02T02:46:16;26.30;;;10.00;;
72791;SDS011;60907;53.268;8.764;2023-03-02T02:48:42;22.15;;;9.40;;
72791;SDS011;60907;53.268;8.764;2023-03-02T02:51:08;30.02;;;9.00;;
72791;SDS011;60907;53.268;8.764;2023-03-02T02:53:45;25.90;;;8.52;;
72791;SDS011;60907;53.268;8.764;2023-03-02T02:56:13;28.73;;;8.88;;
72791;SDS011;60907;53.268;8.764;2023-03-02T02:58:41;28.42;;;8.38;;
72791;SDS011;60907;53.268;8.764;2023-03-02T03:01:11;23.40;;;8.50;;
72791;SDS011;60907;53.268;8.764;2023-03-02T03:03:38;25.95;;;9.18;;
72791;SDS011;60907;53.268;8.764;2023-03-02T03:06:08;25.23;;;9.63;;
72791;SDS011;60907;53.268;8.764;2023-03-02T03:11:05;23.52;;;8.77;;
72791;SDS011;60907;53.268;8.764;2023-03-02T03:13:31;21.85;;;8.32;;
72791;SDS011;60907;53.268;8.764;2023-03-02T03:15:56;22.50;;;8.75;;
72791;SDS011;60907;53.268;8.764;2023-03-02T03:18:22;23.45;;;7.60;;
72791;SDS011;60907;53.268;8.764;2023-03-02T03:20:48;20.35;;;8.55;;
72791;SDS011;60907;53.268;8.764;2023-03-02T03:23:14;22.40;;;9.02;;
72791;SDS011;60907;53.268;8.764;2023-03-02T03:25:39;19.88;;;7.80;;
72791;SDS011;60907;53.268;8.764;2023-03-02T03:28:04;29.92;;;7.07;;
72791;SDS011;60907;53.268;8.764;2023-03-02T03:30:30;21.23;;;7.43;;
72791;SDS011;60907;53.268;8.764;2023-03-02T03:32:55;25.43;;;8.73;;
72791;SDS011;60907;53.268;8.764;2023-03-02T03:35:21;26.93;;;7.63;;
72791;SDS011;60907;53.268;8.764;2023-03-02T03:37:46;24.10;;;8.27;;
72791;SDS011;60907;53.268;8.764;2023-03-02T03:40:12;24.70;;;9.18;;
72791;SDS011;60907;53.268;8.764;2023-03-02T03:42:38;40.65;;;8.82;;
72791;SDS011;60907;53.268;8.764;2023-03-02T03:45:04;43.15;;;8.15;;
72791;SDS011;60907;53.268;8.764;2023-03-02T03:47:30;27.10;;;8.95;;
72791;SDS011;60907;53.268;8.764;2023-03-02T03:49:55;29.02;;;8.98;;
72791;SDS011;60907;53.268;8.764;2023-03-02T03:52:20;21.40;;;8.43;;
72791;SDS011;60907;53.268;8.764;2023-03-02T03:54:54;46.45;;;8.77;;
72791;SDS011;60907;53.268;8.764;2023-03-02T03:57:23;28.60;;;9.07;;
72791;SDS011;60907;53.268;8.764;2023-03-02T03:59:49;28.25;;;8.95;;
72791;SDS011;60907;53.268;8.764;2023-03-02T04:02:15;25.17;;;8.55;;
72791;SDS011;60907;53.268;8.764;2023-03-02T04:04:40;24.05;;;9.15;;
72791;SDS011;60907;53.268;8.764;2023-03-02T04:07:06;26.90;;;8.77;;
72791;SDS011;60907;53.268;8.764;2023-03-02T04:09:31;28.38;;;8.80;;
72791;SDS011;60907;53.268;8.764;2023-03-02T04:12:01;26.35;;;9.35;;
72791;SDS011;60907;53.268;8.764;2023-03-02T04:14:27;20.15;;;6.93;;
72791;SDS011;60907;53.268;8.764;2023-03-02T04:16:53;31.27;;;7.43;;
72791;SDS011;60907;53.268;8.764;2023-03-02T04:19:19;23.27;;;8.02;;
72791;SDS011;60907;53.268;8.764;2023-03-02T04:21:46;24.63;;;7.75;;
72791;SDS011;60907;53.268;8.764;2023-03-02T04:24:12;29.25;;;7.60;;
72791;SDS011;60907;53.268;8.764;2023-03-02T04:26:38;23.33;;;7.55;;
72791;SDS011;60907;53.268;8.764;2023-03-02T04:29:05;20.15;;;7.45;;
72791;SDS011;60907;53.268;8.764;2023-03-02T04:31:31;24.02;;;7.95;;
72791;SDS011;60907;53.268;8.764;2023-03-02T04:33:57;38.03;;;8.20;;
72791;SDS011;60907;53.268;8.764;2023-03-02T04:36:22;22.30;;;7.68;;
72791;SDS011;60907;53.268;8.764;2023-03-02T04:38:48;25.05;;;7.20;;
72791;SDS011;60907;53.268;8.764;2023-03-02T04:41:14;20.27;;;6.88;;
72791;SDS011;60907;53.268;8.764;2023-03-02T04:43:40;21.05;;;6.65;;
72791;SDS011;60907;53.268;8.764;2023-03-02T04:46:05;22.23;;;7.47;;
72791;SDS011;60907;53.268;8.764;2023-03-02T04:48:31;27.45;;;7.07;;
72791;SDS011;60907;53.268;8.764;2023-03-02T04:50:56;19.58;;;7.30;;
72791;SDS011;60907;53.268;8.764;2023-03-02T04:53:21;22.00;;;7.57;;
72791;SDS011;60907;53.268;8.764;2023-03-02T04:55:47;18.85;;;6.97;;
72791;SDS011;60907;53.268;8.764;2023-03-02T04:58:13;22.52;;;7.20;;
72791;SDS011;60907;53.268;8.764;2023-03-02T05:00:38;22.17;;;6.93;;
72791;SDS011;60907;53.268;8.764;2023-03-02T05:03:04;25.08;;;7.85;;
72791;SDS011;60907;53.268;8.764;2023-03-02T05:05:30;24.13;;;8.10;;
72791;SDS011;60907;53.268;8.764;2023-03-02T05:07:56;28.05;;;8.13;;
72791;SDS011;60907;53.268;8.764;2023-03-02T05:10:23;17.27;;;7.30;;
72791;SDS011;60907;53.268;8.764;2023-03-02T05:12:49;18.75;;;7.72;;
72791;SDS011;60907;53.268;8.764;2023-03-02T05:15:31;20.67;;;7.13;;
72791;SDS011;60907;53.268;8.764;2023-03-02T05:17:58;27.55;;;7.47;;
72791;SDS011;60907;53.268;8.764;2023-03-02T05:20:24;24.33;;;7.97;;
72791;SDS011;60907;53.268;8.764;2023-03-02T05:22:55;24.27;;;7.88;;
72791;SDS011;60907;53.268;8.764;2023-03-02T05:25:23;27.90;;;8.18;;
72791;SDS011;60907;53.268;8.764;2023-03-02T05:27:49;25.45;;;7.75;;
72791;SDS011;60907;53.268;8.764;2023-03-02T05:30:14;21.75;;;7.20;;
72791;SDS011;60907;53.268;8.764;2023-03-02T05:32:40;28.40;;;7.85;;
72791;SDS011;60907;53.268;8.764;2023-03-02T05:35:05;23.55;;;7.43;;
72791;SDS011;60907;53.268;8.764;2023-03-02T05:37:31;24.95;;;6.60;;
72791;SDS011;60907;53.268;8.764;2023-03-02T05:39:56;20.73;;;6.63;;
72791;SDS011;60907;53.268;8.764;2023-03-02T05:42:22;22.40;;;6.78;;
72791;SDS011;60907;53.268;8.764;2023-03-02T05:44:47;22.20;;;7.10;;
72791;SDS011;60907;53.268;8.764;2023-03-02T05:47:13;23.88;;;7.53;;
72791;SDS011;60907;53.268;8.764;2023-03-02T05:49:38;20.90;;;7.33;;
72791;SDS011;60907;53.268;8.764;2023-03-02T05:52:03;24.00;;;8.37;;
72791;SDS011;60907;53.268;8.764;2023-03-02T05:54:29;22.67;;;8.18;;
72791;SDS011;60907;53.268;8.764;2023-03-02T05:56:54;21.87;;;7.17;;
72791;SDS011;60907;53.268;8.764;2023-03-02T05:59:20;23.90;;;8.13;;
72791;SDS011;60907;53.268;8.764;2023-03-02T06:01:45;25.83;;;7.43;;
72791;SDS011;60907;53.268;8.764;2023-03-02T06:04:12;19.33;;;6.78;;
72791;SDS011;60907;53.268;8.764;2023-03-02T06:06:37;19.13;;;6.27;;
72791;SDS011;60907;53.268;8.764;2023-03-02T06:09:02;23.08;;;7.97;;
72791;SDS011;60907;53.268;8.764;2023-03-02T06:11:28;19.35;;;7.07;;
72791;SDS011;60907;53.268;8.764;2023-03-02T06:13:54;22.65;;;7.85;;
72791;SDS011;60907;53.268;8.764;2023-03-02T06:16:19;22.52;;;7.85;;
72791;SDS011;60907;53.268;8.764;2023-03-02T06:18:45;21.10;;;7.07;;
72791;SDS011;60907;53.268;8.764;2023-03-02T06:21:10;18.63;;;7.97;;
72791;SDS011;60907;53.268;8.764;2023-03-02T06:23:36;28.20;;;7.80;;
72791;SDS011;60907;53.268;8.764;2023-03-02T06:26:06;18.65;;;8.90;;
72791;SDS011;60907;53.268;8.764;2023-03-02T06:28:32;19.52;;;6.07;;
72791;SDS011;60907;53.268;8.764;2023-03-02T06:30:58;16.02;;;5.57;;
72791;SDS011;60907;53.268;8.764;2023-03-02T06:33:24;18.40;;;7.63;;
72791;SDS011;60907;53.268;8.764;2023-03-02T06:35:49;15.93;;;6.40;;
72791;SDS011;60907;53.268;8.764;2023-03-02T06:38:15;17.75;;;6.07;;
72791;SDS011;60907;53.268;8.764;2023-03-02T06:40:41;24.30;;;7.32;;
72791;SDS011;60907;53.268;8.764;2023-03-02T06:43:06;15.20;;;6.82;;
72791;SDS011;60907;53.268;8.764;2023-03-02T06:45:31;17.77;;;7.13;;
72791;SDS011;60907;53.268;8.764;2023-03-02T06:47:58;18.92;;;6.32;;
72791;SDS011;60907;53.268;8.764;2023-03-02T06:50:24;20.77;;;6.68;;
72791;SDS011;60907;53.268;8.764;2023-03-02T06:52:50;18.60;;;6.65;;
72791;SDS011;60907;53.268;8.764;2023-03-02T06:55:16;14.07;;;5.18;;
72791;SDS011;60907;53.268;8.764;2023-03-02T06:57:41;19.35;;;6.10;;
72791;SDS011;60907;53.268;8.764;2023-03-02T07:00:07;17.15;;;6.22;;
72791;SDS011;60907;53.268;8.764;2023-03-02T07:02:37;18.70;;;6.43;;
72791;SDS011;60907;53.268;8.764;2023-03-02T07:05:03;15.70;;;6.45;;
72791;SDS011;60907;53.268;8.764;2023-03-02T07:07:30;15.55;;;6.32;;
72791;SDS011;60907;53.268;8.764;2023-03-02T07:09:55;22.83;;;6.50;;
72791;SDS011;60907;53.268;8.764;2023-03-02T07:12:20;22.83;;;6.25;;
72791;SDS011;60907;53.268;8.764;2023-03-02T07:14:46;17.80;;;6.00;;
72791;SDS011;60907;53.268;8.764;2023-03-02T07:17:11;19.60;;;5.85;;
72791;SDS011;60907;53.268;8.764;2023-03-02T07:19:37;18.88;;;5.93;;
72791;SDS011;60907;53.268;8.764;2023-03-02T07:22:03;23.58;;;6.65;;
72791;SDS011;60907;53.268;8.764;2023-03-02T07:24:29;21.77;;;5.95;;
72791;SDS011;60907;53.268;8.764;2023-03-02T07:26:55;23.33;;;5.80;;
72791;SDS011;60907;53.268;8.764;2023-03-02T07:29:20;31.13;;;7.13;;
72791;SDS011;60907;53.268;8.764;2023-03-02T07:31:46;15.47;;;5.50;;
72791;SDS011;60907;53.268;8.764;2023-03-02T07:34:12;20.20;;;5.65;;
72791;SDS011;60907;53.268;8.764;2023-03-02T07:36:39;22.35;;;5.85;;
72791;SDS011;60907;53.268;8.764;2023-03-02T07:39:04;18.67;;;5.70;;
72791;SDS011;60907;53.268;8.764;2023-03-02T07:41:29;18.38;;;5.82;;
72791;SDS011;60907;53.268;8.764;2023-03-02T07:43:55;13.85;;;5.35;;
72791;SDS011;60907;53.268;8.764;2023-03-02T07:46:20;14.27;;;5.17;;
72791;SDS011;60907;53.268;8.764;2023-03-02T07:48:46;14.60;;;5.03;;
72791;SDS011;60907;53.268;8.764;2023-03-02T07:51:11;24.88;;;5.95;;
72791;SDS011;60907;53.268;8.764;2023-03-02T07:53:36;23.83;;;4.53;;
72791;SDS011;60907;53.268;8.764;2023-03-02T07:56:06;27.38;;;6.53;;
72791;SDS011;60907;53.268;8.764;2023-03-02T07:58:32;24.05;;;6.03;;
72791;SDS011;60907;53.268;8.764;2023-03-02T08:00:58;14.65;;;5.43;;
72791;SDS011;60907;53.268;8.764;2023-03-02T08:03:23;21.00;;;5.87;;
72791;SDS011;60907;53.268;8.764;2023-03-02T08:05:49;17.75;;;5.38;;
72791;SDS011;60907;53.268;8.764;2023-03-02T08:08:14;21.07;;;4.77;;
72791;SDS011;60907;53.268;8.764;2023-03-02T08:10:39;13.07;;;4.80;;
72791;SDS011;60907;53.268;8.764;2023-03-02T08:13:05;22.37;;;5.47;;
72791;SDS011;60907;53.268;8.764;2023-03-02T08:15:30;25.38;;;5.57;;
72791;SDS011;60907;53.268;8.764;2023-03-02T08:17:55;16.52;;;5.05;;
72791;SDS011;60907;53.268;8.764;2023-03-02T08:20:21;16.75;;;5.55;;
72791;SDS011;60907;53.268;8.764;2023-03-02T08:22:46;22.37;;;4.53;;
72791;SDS011;60907;53.268;8.764;2023-03-02T08:25:12;13.80;;;4.97;;
72791;SDS011;60907;53.268;8.764;2023-03-02T08:27:37;22.17;;;4.83;;
72791;SDS011;60907;53.268;8.764;2023-03-02T08:30:04;12.93;;;4.88;;
72791;SDS011;60907;53.268;8.764;2023-03-02T08:32:31;17.55;;;5.10;;
72791;SDS011;60907;53.268;8.764;2023-03-02T08:34:57;16.05;;;4.93;;
72791;SDS011;60907;53.268;8.764;2023-03-02T08:37:23;11.93;;;5.13;;
72791;SDS011;60907;53.268;8.764;2023-03-02T08:39:48;15.43;;;5.17;;
72791;SDS011;60907;53.268;8.764;2023-03-02T08:42:14;11.63;;;4.47;;
72791;SDS011;60907;53.268;8.764;2023-03-02T08:44:40;22.20;;;5.65;;
72791;SDS011;60907;53.268;8.764;2023-03-02T08:47:05;22.15;;;5.22;;
72791;SDS011;60907;53.268;8.764;2023-03-02T08:49:31;15.23;;;5.32;;
72791;SDS011;60907;53.268;8.764;2023-03-02T08:51:57;20.83;;;5.43;;
72791;SDS011;60907;53.268;8.764;2023-03-02T08:54:23;16.08;;;5.35;;
72791;SDS011;60907;53.268;8.764;2023-03-02T08:56:49;14.85;;;4.65;;
72791;SDS011;60907;53.268;8.764;2023-03-02T08:59:15;15.32;;;3.80;;
72791;SDS011;60907;53.268;8.764;2023-03-02T09:01:41;18.90;;;4.82;;
72791;SDS011;60907;53.268;8.764;2023-03-02T09:04:07;16.25;;;4.28;;
72791;SDS011;60907;53.268;8.764;2023-03-02T09:06:35;13.70;;;4.75;;
72791;SDS011;60907;53.268;8.764;2023-03-02T09:09:02;14.25;;;4.60;;
72791;SDS011;60907;53.268;8.764;2023-03-02T09:11:28;17.58;;;4.63;;
72791;SDS011;60907;53.268;8.764;2023-03-02T09:13:53;17.07;;;5.60;;
72791;SDS011;60907;53.268;8.764;2023-03-02T09:16:20;13.75;;;4.78;;
72791;SDS011;60907;53.268;8.764;2023-03-02T09:21:13;16.60;;;5.50;;
72791;SDS011;60907;53.268;8.764;2023-03-02T09:23:38;13.77;;;5.23;;
72791;SDS011;60907;53.268;8.764;2023-03-02T09:26:04;16.50;;;5.20;;
72791;SDS011;60907;53.268;8.764;2023-03-02T09:28:29;14.75;;;4.43;;
72791;SDS011;60907;53.268;8.764;2023-03-02T09:30:59;15.55;;;4.93;;
72791;SDS011;60907;53.268;8.764;2023-03-02T09:33:27;11.40;;;4.28;;
72791;SDS011;60907;53.268;8.764;2023-03-02T09:35:53;12.52;;;4.03;;
72791;SDS011;60907;53.268;8.764;2023-03-02T09:38:18;14.05;;;4.32;;
72791;SDS011;60907;53.268;8.764;2023-03-02T09:41:00;17.40;;;4.65;;
72791;SDS011;60907;53.268;8.764;2023-03-02T09:46:51;15.40;;;5.18;;
72791;SDS011;60907;53.268;8.764;2023-03-02T09:52:09;14.60;;;5.07;;
72791;SDS011;60907;53.268;8.764;2023-03-02T09:54:46;33.15;;;12.75;;
72791;SDS011;60907;53.268;8.764;2023-03-02T09:57:33;16.67;;;6.00;;
72791;SDS011;60907;53.268;8.764;2023-03-02T10:00:00;17.17;;;5.60;;
72791;SDS011;60907;53.268;8.764;2023-03-02T10:04:57;16.60;;;6.03;;
72791;SDS011;60907;53.268;8.764;2023-03-02T10:10:01;12.38;;;5.13;;
72791;SDS011;60907;53.268;8.764;2023-03-02T10:18:20;12.80;;;4.90;;
72791;SDS011;60907;53.268;8.764;2023-03-02T10:20:53;10.68;;;4.22;;
72791;SDS011;60907;53.268;8.764;2023-03-02T10:23:35;12.48;;;4.43;;
72791;SDS011;60907;53.268;8.764;2023-03-02T10:31:44;11.95;;;4.82;;
72791;SDS011;60907;53.268;8.764;2023-03-02T10:34:11;15.90;;;6.10;;
72791;SDS011;60907;53.268;8.764;2023-03-02T10:36:38;15.07;;;5.18;;
72791;SDS011;60907;53.268;8.764;2023-03-02T10:39:12;15.48;;;5.75;;
72791;SDS011;60907;53.268;8.764;2023-03-02T10:41:41;11.25;;;4.50;;
72791;SDS011;60907;53.268;8.764;2023-03-02T10:44:20;11.27;;;4.65;;
72791;SDS011;60907;53.268;8.764;2023-03-02T10:46:48;11.82;;;5.03;;
72791;SDS011;60907;53.268;8.764;2023-03-02T10:49:34;14.77;;;5.15;;
72791;SDS011;60907;53.268;8.764;2023-03-02T10:54:30;14.68;;;5.53;;
72791;SDS011;60907;53.268;8.764;2023-03-02T10:56:59;12.65;;;5.63;;
72791;SDS011;60907;53.268;8.764;2023-03-02T10:59:40;12.05;;;4.85;;
72791;SDS011;60907;53.268;8.764;2023-03-02T11:02:23;10.68;;;4.57;;
72791;SDS011;60907;53.268;8.764;2023-03-02T11:05:18;11.93;;;4.47;;
72791;SDS011;60907;53.268;8.764;2023-03-02T11:07:50;15.52;;;5.55;;
72791;SDS011;60907;53.268;8.764;2023-03-02T11:10:18;15.15;;;6.13;;
72791;SDS011;60907;53.268;8.764;2023-03-02T11:12:47;15.30;;;5.95;;
72791;SDS011;60907;53.268;8.764;2023-03-02T11:17:38;12.60;;;5.10;;
72791;SDS011;60907;53.268;8.764;2023-03-02T11:20:05;12.73;;;5.00;;
72791;SDS011;60907;53.268;8.764;2023-03-02T11:22:52;14.38;;;5.13;;
72791;SDS011;60907;53.268;8.764;2023-03-02T11:25:31;18.23;;;7.40;;
72791;SDS011;60907;53.268;8.764;2023-03-02T11:28:19;23.75;;;9.88;;
72791;SDS011;60907;53.268;8.764;2023-03-02T11:30:46;20.38;;;7.32;;
72791;SDS011;60907;53.268;8.764;2023-03-02T11:33:15;17.55;;;5.65;;
72791;SDS011;60907;53.268;8.764;2023-03-02T11:35:45;44.75;;;17.65;;
72791;SDS011;60907;53.268;8.764;2023-03-02T11:38:15;19.23;;;8.23;;
72791;SDS011;60907;53.268;8.764;2023-03-02T11:40:50;15.15;;;6.72;;
72791;SDS011;60907;53.268;8.764;2023-03-02T11:43:19;22.25;;;10.27;;
72791;SDS011;60907;53.268;8.764;2023-03-02T11:45:45;11.70;;;4.40;;
72791;SDS011;60907;53.268;8.764;2023-03-02T11:48:17;13.15;;;5.38;;
72791;SDS011;60907;53.268;8.764;2023-03-02T11:50:55;13.55;;;4.80;;
72791;SDS011;60907;53.268;8.764;2023-03-02T11:54:11;13.20;;;5.35;;
72791;SDS011;60907;53.268;8.764;2023-03-02T11:56:21;16.55;;;5.45;;
72791;SDS011;60907;53.268;8.764;2023-03-02T11:58:49;14.13;;;5.47;;
72791;SDS011;60907;53.268;8.764;2023-03-02T12:01:23;10.90;;;5.10;;
72791;SDS011;60907;53.268;8.764;2023-03-02T12:03:49;13.15;;;5.20;;
72791;SDS011;60907;53.268;8.764;2023-03-02T12:08:48;15.30;;;5.68;;
72791;SDS011;60907;53.268;8.764;2023-03-02T12:19:44;25.58;;;10.43;;
72791;SDS011;60907;53.268;8.764;2023-03-02T12:22:02;19.15;;;7.97;;
72791;SDS011;60907;53.268;8.764;2023-03-02T12:24:31;27.60;;;10.90;;
72791;SDS011;60907;53.268;8.764;2023-03-02T12:29:36;19.25;;;7.68;;
72791;SDS011;60907;53.268;8.764;2023-03-02T12:32:09;18.40;;;7.10;;
72791;SDS011;60907;53.268;8.764;2023-03-02T12:34:55;15.55;;;6.47;;
72791;SDS011;60907;53.268;8.764;2023-03-02T12:37:23;19.33;;;8.90;;
72791;SDS011;60907;53.268;8.764;2023-03-02T12:40:08;17.77;;;7.47;;
72791;SDS011;60907;53.268;8.764;2023-03-02T12:54:15;11.98;;;4.90;;
72791;SDS011;60907;53.268;8.764;2023-03-02T12:56:42;12.40;;;4.78;;
72791;SDS011;60907;53.268;8.764;2023-03-02T12:59:22;12.77;;;4.90;;
72791;SDS011;60907;53.268;8.764;2023-03-02T13:01:49;10.75;;;4.68;;
72791;SDS011;60907;53.268;8.764;2023-03-02T13:04:24;10.73;;;4.35;;
72791;SDS011;60907;53.268;8.764;2023-03-02T13:06:51;11.10;;;4.63;;
72791;SDS011;60907;53.268;8.764;2023-03-02T13:09:17;11.77;;;4.72;;
72791;SDS011;60907;53.268;8.764;2023-03-02T13:11:44;12.65;;;5.07;;
72791;SDS011;60907;53.268;8.764;2023-03-02T13:14:18;14.35;;;5.57;;
72791;SDS011;60907;53.268;8.764;2023-03-02T13:16:58;14.80;;;6.10;;
72791;SDS011;60907;53.268;8.764;2023-03-02T13:19:26;15.45;;;5.43;;
72791;SDS011;60907;53.268;8.764;2023-03-02T13:21:54;15.55;;;6.38;;
72791;SDS011;60907;53.268;8.764;2023-03-02T13:27:20;15.20;;;6.30;;
72791;SDS011;60907;53.268;8.764;2023-03-02T13:29:46;9.80;;;4.25;;
72791;SDS011;60907;53.268;8.764;2023-03-02T13:32:22;13.02;;;4.60;;
72791;SDS011;60907;53.268;8.764;2023-03-02T13:34:58;11.52;;;5.35;;
72791;SDS011;60907;53.268;8.764;2023-03-02T13:39:58;15.15;;;4.68;;
72791;SDS011;60907;53.268;8.764;2023-03-02T13:42:39;9.80;;;4.32;;
72791;SDS011;60907;53.268;8.764;2023-03-02T13:45:12;10.48;;;4.15;;
72791;SDS011;60907;53.268;8.764;2023-03-02T13:47:47;10.18;;;4.82;;
72791;SDS011;60907;53.268;8.764;2023-03-02T13:50:17;9.18;;;4.22;;
72791;SDS011;60907;53.268;8.764;2023-03-02T13:57:41;12.32;;;5.43;;
72791;SDS011;60907;53.268;8.764;2023-03-02T14:00:13;11.80;;;4.38;;
72791;SDS011;60907;53.268;8.764;2023-03-02T14:02:40;14.38;;;5.10;;
72791;SDS011;60907;53.268;8.764;2023-03-02T14:05:16;12.55;;;5.00;;
72791;SDS011;60907;53.268;8.764;2023-03-02T14:07:42;13.63;;;5.40;;
72791;SDS011;60907;53.268;8.764;2023-03-02T14:10:09;12.32;;;5.45;;
72791;SDS011;60907;53.268;8.764;2023-03-02T14:12:35;11.88;;;5.20;;
72791;SDS011;60907;53.268;8.764;2023-03-02T14:15:01;13.20;;;5.05;;
72791;SDS011;60907;53.268;8.764;2023-03-02T14:17:27;12.95;;;5.28;;
72791;SDS011;60907;53.268;8.764;2023-03-02T14:19:53;12.02;;;5.85;;
72791;SDS011;60907;53.268;8.764;2023-03-02T14:22:19;10.88;;;5.75;;
72791;SDS011;60907;53.268;8.764;2023-03-02T14:24:45;13.82;;;5.35;;
72791;SDS011;60907;53.268;8.764;2023-03-02T14:27:12;12.98;;;5.88;;
72791;SDS011;60907;53.268;8.764;2023-03-02T14:29:41;11.20;;;4.40;;
72791;SDS011;60907;53.268;8.764;2023-03-02T14:32:07;12.00;;;4.85;;
72791;SDS011;60907;53.268;8.764;2023-03-02T14:34:34;9.52;;;4.88;;
72791;SDS011;60907;53.268;8.764;2023-03-02T14:37:04;11.55;;;5.45;;
72791;SDS011;60907;53.268;8.764;2023-03-02T14:41:56;11.10;;;5.40;;
72791;SDS011;60907;53.268;8.764;2023-03-02T14:44:21;14.17;;;5.97;;
72791;SDS011;60907;53.268;8.764;2023-03-02T14:46:47;14.52;;;5.82;;
72791;SDS011;60907;53.268;8.764;2023-03-02T14:49:12;12.60;;;5.95;;
72791;SDS011;60907;53.268;8.764;2023-03-02T14:51:38;15.07;;;5.47;;
72791;SDS011;60907;53.268;8.764;2023-03-02T14:54:05;13.85;;;6.00;;
72791;SDS011;60907;53.268;8.764;2023-03-02T14:56:32;14.15;;;7.40;;
72791;SDS011;60907;53.268;8.764;2023-03-02T14:58:58;15.02;;;6.38;;
72791;SDS011;60907;53.268;8.764;2023-03-02T15:01:24;16.60;;;6.38;;
72791;SDS011;60907;53.268;8.764;2023-03-02T15:03:49;14.63;;;6.35;;
72791;SDS011;60907;53.268;8.764;2023-03-02T15:06:25;14.02;;;6.05;;
72791;SDS011;60907;53.268;8.764;2023-03-02T15:08:52;13.30;;;5.95;;
72791;SDS011;60907;53.268;8.764;2023-03-02T15:11:19;15.48;;;7.20;;
72791;SDS011;60907;53.268;8.764;2023-03-02T15:13:44;15.00;;;6.40;;
72791;SDS011;60907;53.268;8.764;2023-03-02T15:16:10;19.00;;;6.55;;
72791;SDS011;60907;53.268;8.764;2023-03-02T15:18:36;12.73;;;6.03;;
72791;SDS011;60907;53.268;8.764;2023-03-02T15:21:02;13.43;;;6.53;;
72791;SDS011;60907;53.268;8.764;2023-03-02T15:23:28;16.45;;;7.18;;
72791;SDS011;60907;53.268;8.764;2023-03-02T15:25:59;16.17;;;6.05;;
72791;SDS011;60907;53.268;8.764;2023-03-02T15:28:25;13.98;;;6.22;;
72791;SDS011;60907;53.268;8.764;2023-03-02T15:30:51;14.38;;;6.53;;
72791;SDS011;60907;53.268;8.764;2023-03-02T15:33:16;16.73;;;6.43;;
72791;SDS011;60907;53.268;8.764;2023-03-02T15:35:42;14.95;;;6.80;;
72791;SDS011;60907;53.268;8.764;2023-03-02T15:38:08;14.55;;;5.80;;
72791;SDS011;60907;53.268;8.764;2023-03-02T15:40:34;15.30;;;5.95;;
72791;SDS011;60907;53.268;8.764;2023-03-02T15:43:01;12.27;;;6.10;;
72791;SDS011;60907;53.268;8.764;2023-03-02T15:45:26;13.02;;;6.38;;
72791;SDS011;60907;53.268;8.764;2023-03-02T15:47:52;14.45;;;5.78;;
72791;SDS011;60907;53.268;8.764;2023-03-02T15:50:19;17.25;;;6.75;;
72791;SDS011;60907;53.268;8.764;2023-03-02T15:52:44;14.87;;;6.60;;
72791;SDS011;60907;53.268;8.764;2023-03-02T15:55:09;13.93;;;5.70;;